createdAt,value
2019-02-10T00:01:51.328Z,4.58
2019-02-10T00:04:32.932Z,4.09
2019-02-10T00:07:07.380Z,4.13
2019-02-10T00:09:47.399Z,4.22
2019-02-10T00:12:20.547Z,4.41
2019-02-10T00:15:01.157Z,4.24
2019-02-10T00:17:36.471Z,4.31
2019-02-10T00:20:14.813Z,4.42
2019-02-10T00:22:52.009Z,4.36
2019-02-10T00:25:35.692Z,4.40
2019-02-10T00:28:11.312Z,4.35
2019-02-10T00:30:50.697Z,4.32
2019-02-10T00:33:24.097Z,4.30
2019-02-10T00:36:01.360Z,4.28
2019-02-10T00:38:38.523Z,4.21
2019-02-10T00:41:15.404Z,4.16
2019-02-10T00:43:47.795Z,4.05
2019-02-10T00:46:26.254Z,3.99
2019-02-10T00:49:01.496Z,4.06
2019-02-10T00:51:38.144Z,4.12
2019-02-10T00:54:10.626Z,4.32
2019-02-10T00:56:51.619Z,4.08
2019-02-10T00:59:26.295Z,4.09
2019-02-10T01:02:05.246Z,3.99
2019-02-10T01:04:38.366Z,4.18
2019-02-10T01:07:15.467Z,4.06
2019-02-10T01:09:49.106Z,3.95
2019-02-10T01:12:24.238Z,3.98
2019-02-10T01:14:55.331Z,3.97
2019-02-10T01:17:29.297Z,4.01
2019-02-10T01:20:01.951Z,3.82
2019-02-10T01:22:40.234Z,3.95
2019-02-10T01:25:12.396Z,3.83
2019-02-10T01:27:47.900Z,3.77
2019-02-10T01:30:19.938Z,3.77
2019-02-10T01:32:55.000Z,3.72
2019-02-10T01:35:28.126Z,3.71
2019-02-10T01:38:03.724Z,3.73
2019-02-10T01:40:38.184Z,4.00
2019-02-10T01:43:16.162Z,4.15
2019-02-10T01:45:50.032Z,4.23
2019-02-10T01:48:24.453Z,4.07
2019-02-10T01:50:57.093Z,4.11
2019-02-10T01:53:34.190Z,3.95
2019-02-10T01:56:06.019Z,4.05
2019-02-10T01:58:41.283Z,3.90
2019-02-10T02:01:14.072Z,3.85
2019-02-10T02:03:49.493Z,3.82
2019-02-10T02:06:22.453Z,3.96
2019-02-10T02:08:55.888Z,3.88
2019-02-10T02:11:30.534Z,3.75
2019-02-10T02:14:05.563Z,3.82
2019-02-10T02:16:39.063Z,3.71
2019-02-10T02:19:15.320Z,3.57
2019-02-10T02:21:48.747Z,3.52
2019-02-10T02:24:21.239Z,3.38
2019-02-10T02:27:01.892Z,3.43
2019-02-10T02:29:33.750Z,3.41
2019-02-10T02:32:06.944Z,3.71
2019-02-10T02:34:39.186Z,3.68
2019-02-10T02:37:12.180Z,3.71
2019-02-10T02:39:46.475Z,3.43
2019-02-10T02:42:18.775Z,3.41
2019-02-10T02:44:51.439Z,3.34
2019-02-10T02:47:24.692Z,3.30
2019-02-10T02:49:58.466Z,3.06
2019-02-10T02:52:32.645Z,3.03
2019-02-10T02:55:06.432Z,3.13
2019-02-10T02:57:39.562Z,3.06
2019-02-10T03:00:13.514Z,3.22
2019-02-10T03:02:43.843Z,3.33
2019-02-10T03:05:13.592Z,3.41
2019-02-10T03:07:44.331Z,3.56
2019-02-10T03:10:15.025Z,3.40
2019-02-10T03:12:46.914Z,3.44
2019-02-10T03:15:20.720Z,3.33
2019-02-10T03:17:53.285Z,3.40
2019-02-10T03:20:27.040Z,3.28
2019-02-10T03:22:59.553Z,3.21
2019-02-10T03:25:33.028Z,3.33
2019-02-10T03:28:08.029Z,3.25
2019-02-10T03:30:41.476Z,3.28
2019-02-10T03:33:13.238Z,3.26
2019-02-10T03:35:47.710Z,3.04
2019-02-10T03:38:23.017Z,2.98
2019-02-10T03:40:57.917Z,2.92
2019-02-10T03:43:31.176Z,2.79
2019-02-10T03:46:03.930Z,2.86
2019-02-10T03:48:37.140Z,2.73
2019-02-10T03:51:10.925Z,2.74
2019-02-10T03:53:46.136Z,2.68
2019-02-10T03:56:19.251Z,2.73
2019-02-10T03:58:51.849Z,2.81
2019-02-10T04:01:25.503Z,2.66
2019-02-10T04:03:56.672Z,2.75
2019-02-10T04:06:28.976Z,2.82
2019-02-10T04:09:03.112Z,2.99
2019-02-10T04:11:41.745Z,2.85
2019-02-10T04:14:15.441Z,2.76
2019-02-10T04:16:47.197Z,2.90
2019-02-10T04:19:19.122Z,3.02
2019-02-10T04:21:55.062Z,2.98
2019-02-10T04:24:27.276Z,2.97
2019-02-10T04:27:00.755Z,2.75
2019-02-10T04:29:33.803Z,2.80
2019-02-10T04:32:06.407Z,2.83
2019-02-10T04:34:39.724Z,2.76
2019-02-10T04:37:11.575Z,2.76
2019-02-10T04:39:49.004Z,3.04
2019-02-10T04:42:22.947Z,2.95
2019-02-10T04:44:54.117Z,2.92
2019-02-10T04:47:26.728Z,2.84
2019-02-10T04:50:00.383Z,3.00
2019-02-10T04:52:32.570Z,3.06
2019-02-10T04:55:06.016Z,3.00
2019-02-10T04:57:39.652Z,3.05
2019-02-10T05:00:13.934Z,2.80
2019-02-10T05:02:46.565Z,2.98
2019-02-10T05:05:20.375Z,2.77
2019-02-10T05:07:54.746Z,2.81
2019-02-10T05:10:27.536Z,2.76
2019-02-10T05:13:02.211Z,2.68
2019-02-10T05:15:34.476Z,2.79
2019-02-10T05:18:06.940Z,2.77
2019-02-10T05:20:39.112Z,2.73
2019-02-10T05:23:11.433Z,2.80
2019-02-10T05:25:43.044Z,2.72
2019-02-10T05:28:14.324Z,2.73
2019-02-10T05:30:47.399Z,2.97
2019-02-10T05:33:21.346Z,2.82
2019-02-10T05:35:52.623Z,2.86
2019-02-10T05:38:28.492Z,2.93
2019-02-10T05:41:04.853Z,2.92
2019-02-10T05:43:40.452Z,2.99
2019-02-10T05:46:11.835Z,3.07
2019-02-10T05:48:46.944Z,3.18
2019-02-10T05:51:18.412Z,3.18
2019-02-10T05:53:53.220Z,3.08
2019-02-10T05:56:24.681Z,2.92
2019-02-10T05:58:58.819Z,2.98
2019-02-10T06:02:03.282Z,2.80
2019-02-10T06:04:44.197Z,2.76
2019-02-10T06:07:19.106Z,2.79
2019-02-10T06:09:54.426Z,2.81
2019-02-10T06:12:29.138Z,2.87
2019-02-10T06:15:08.902Z,2.85
2019-02-10T06:17:41.615Z,2.90
2019-02-10T06:20:17.262Z,2.88
2019-02-10T06:22:50.946Z,2.92
2019-02-10T06:25:24.829Z,2.90
2019-02-10T06:28:02.868Z,3.22
2019-02-10T06:30:40.209Z,3.19
2019-02-10T06:33:14.658Z,3.05
2019-02-10T06:35:49.961Z,3.06
2019-02-10T06:38:23.957Z,3.03
2019-02-10T06:40:57.401Z,3.07
2019-02-10T06:43:31.587Z,3.18
2019-02-10T06:46:05.120Z,3.29
2019-02-10T06:48:37.729Z,3.23
2019-02-10T06:51:12.026Z,3.22
2019-02-10T06:53:45.596Z,3.13
2019-02-10T06:56:21.350Z,3.15
2019-02-10T06:58:53.416Z,3.18
2019-02-10T07:01:27.020Z,3.03
2019-02-10T07:04:04.670Z,3.03
2019-02-10T07:06:45.060Z,3.18
2019-02-10T07:09:18.163Z,3.05
2019-02-10T07:11:51.109Z,2.94
2019-02-10T07:14:25.709Z,2.94
2019-02-10T07:20:14.432Z,2.95
2019-02-10T07:22:53.296Z,2.97
2019-02-10T07:25:49.861Z,2.95
2019-02-10T07:28:31.003Z,3.01
2019-02-10T07:31:11.046Z,3.15
2019-02-10T07:34:11.376Z,3.20
2019-02-10T07:36:59.849Z,3.16
2019-02-10T07:40:03.575Z,3.30
2019-02-10T07:43:01.383Z,3.32
2019-02-10T07:45:52.267Z,3.34
2019-02-10T07:48:42.160Z,3.42
2019-02-10T07:51:37.849Z,3.47
2019-02-10T07:54:12.308Z,3.73
2019-02-10T07:59:55.247Z,3.60
2019-02-10T08:05:31.029Z,3.80
2019-02-10T08:08:18.249Z,3.65
2019-02-10T08:11:31.061Z,3.86
2019-02-10T08:17:35.384Z,4.04
2019-02-10T08:20:23.336Z,4.37
2019-02-10T08:26:16.800Z,4.45
2019-02-10T08:29:08.204Z,4.14
2019-02-10T08:32:02.824Z,4.47
2019-02-10T08:37:25.993Z,4.71
2019-02-10T08:40:39.111Z,4.76
2019-02-10T08:46:39.352Z,4.87
2019-02-10T08:52:28.515Z,4.79
2019-02-10T08:57:40.202Z,4.27
2019-02-10T09:02:52.331Z,4.16
2019-02-10T09:08:01.574Z,4.24
2019-02-10T09:13:14.346Z,4.22
2019-02-10T09:18:23.723Z,4.57
2019-02-10T09:23:31.019Z,4.98
2019-02-10T09:32:54.817Z,6.89
2019-02-10T09:38:00.489Z,5.60
2019-02-10T09:53:23.597Z,7.93
2019-02-10T09:56:04.038Z,7.66
2019-02-10T09:58:40.591Z,8.17
2019-02-10T10:01:14.879Z,8.04
2019-02-10T10:03:48.265Z,7.49
2019-02-10T10:06:28.014Z,8.41
2019-02-10T10:09:05.173Z,10.13
2019-02-10T10:11:43.244Z,10.70
2019-02-10T10:14:14.447Z,11.23
2019-02-10T10:16:50.514Z,10.76
2019-02-10T10:19:23.612Z,10.67
2019-02-10T10:22:05.719Z,12.01
2019-02-10T10:24:50.166Z,13.41
2019-02-10T10:29:59.702Z,11.58
2019-02-10T10:32:35.017Z,11.11
2019-02-10T10:35:09.651Z,10.55
2019-02-10T10:37:41.638Z,9.47
2019-02-10T10:40:19.232Z,11.12
2019-02-10T10:44:53.362Z,12.12
2019-02-10T10:47:27.084Z,7.60
2019-02-10T10:49:59.394Z,6.52
2019-02-10T10:52:34.666Z,6.37
2019-02-10T10:55:04.748Z,6.38
2019-02-10T10:57:37.088Z,6.80
2019-02-10T11:00:11.929Z,6.71
2019-02-10T11:02:50.576Z,6.71
2019-02-10T11:05:23.343Z,6.63
2019-02-10T11:07:59.917Z,6.90
2019-02-10T11:10:31.357Z,7.03
2019-02-10T11:13:05.771Z,7.16
2019-02-10T11:15:39.274Z,7.06
2019-02-10T11:18:15.274Z,6.86
2019-02-10T11:20:46.696Z,7.01
2019-02-10T11:23:22.192Z,7.03
2019-02-10T11:25:57.668Z,7.19
2019-02-10T11:28:34.391Z,6.86
2019-02-10T11:31:05.778Z,7.06
2019-02-10T11:36:09.992Z,7.12
2019-02-10T11:38:48.766Z,7.47
2019-02-10T11:41:20.533Z,7.24
2019-02-10T11:43:54.965Z,7.51
2019-02-10T11:46:30.098Z,7.68
2019-02-10T11:51:34.569Z,7.34
2019-02-10T11:54:11.865Z,7.62
2019-02-10T11:56:43.273Z,8.14
2019-02-10T12:01:49.257Z,8.03
2019-02-10T12:06:56.326Z,8.08
2019-02-10T12:09:33.807Z,7.57
2019-02-10T12:12:03.816Z,7.73
2019-02-10T12:17:08.206Z,7.81
2019-02-10T12:22:14.944Z,7.84
2019-02-10T12:24:52.364Z,7.58
2019-02-10T12:27:28.516Z,7.76
2019-02-10T12:30:06.845Z,7.92
2019-02-10T12:32:40.296Z,8.33
2019-02-10T12:35:21.688Z,8.58
2019-02-10T12:37:58.291Z,8.54
2019-02-10T12:40:29.426Z,8.79
2019-02-10T12:45:36.858Z,9.38
2019-02-10T12:48:14.264Z,9.16
2019-02-10T12:50:45.998Z,9.07
2019-02-10T12:53:21.646Z,8.88
2019-02-10T12:55:53.616Z,8.50
2019-02-10T13:01:50.746Z,8.08
2019-02-10T13:06:56.613Z,7.84
2019-02-10T13:09:33.862Z,7.85
2019-02-10T13:12:04.640Z,7.78
2019-02-10T13:14:39.924Z,7.86
2019-02-10T13:17:10.226Z,7.77
2019-02-10T13:20:04.882Z,7.86
2019-02-10T13:22:36.659Z,7.93
2019-02-10T13:27:50.512Z,8.44
2019-02-10T13:30:23.925Z,8.36
2019-02-10T13:32:55.645Z,8.30
2019-02-10T13:35:30.152Z,8.38
2019-02-10T13:38:01.617Z,8.33
2019-02-10T13:40:37.813Z,7.87
2019-02-10T13:43:09.983Z,7.80
2019-02-10T13:45:45.058Z,7.87
2019-02-10T13:51:18.174Z,7.71
2019-02-10T13:56:48.499Z,7.31
2019-02-10T14:02:17.964Z,7.26
2019-02-10T14:04:52.256Z,7.59
2019-02-10T14:07:26.670Z,7.27
2019-02-10T14:09:57.258Z,7.46
2019-02-10T14:12:32.520Z,7.39
2019-02-10T14:18:03.491Z,7.34
2019-02-10T14:20:35.115Z,7.21
2019-02-10T14:23:11.925Z,7.46
2019-02-10T14:25:42.827Z,7.22
2019-02-10T14:28:21.872Z,6.93
2019-02-10T14:30:51.908Z,6.89
2019-02-10T14:33:25.047Z,7.02
2019-02-10T14:35:54.896Z,7.11
2019-02-10T14:38:36.281Z,6.99
2019-02-10T14:41:01.554Z,6.92
2019-02-10T14:43:35.611Z,6.99
2019-02-10T14:46:07.020Z,6.85
2019-02-10T14:48:40.643Z,6.84
2019-02-10T14:51:13.348Z,6.80
2019-02-10T14:53:48.065Z,6.72
2019-02-10T14:56:17.724Z,6.70
2019-02-10T14:58:50.470Z,6.79
2019-02-10T15:01:20.992Z,6.69
2019-02-10T15:03:57.170Z,6.68
2019-02-10T15:06:30.293Z,6.64
2019-02-10T15:09:19.438Z,6.91
2019-02-10T15:11:49.889Z,6.62
2019-02-10T15:14:23.645Z,6.51
2019-02-10T15:17:00.783Z,6.53
2019-02-10T15:19:35.187Z,6.52
2019-02-10T15:22:07.819Z,6.49
2019-02-10T15:24:43.200Z,6.47
2019-02-10T15:27:19.002Z,6.48
2019-02-10T15:29:54.556Z,6.44
2019-02-10T15:32:25.925Z,6.41
2019-02-10T15:35:03.421Z,6.52
2019-02-10T15:37:33.616Z,6.37
2019-02-10T15:40:30.591Z,6.41
2019-02-10T15:43:06.302Z,6.32
2019-02-10T15:45:36.890Z,6.50
2019-02-10T15:48:11.459Z,6.59
2019-02-10T15:50:42.276Z,6.48
2019-02-10T15:53:16.789Z,6.40
2019-02-10T15:55:49.105Z,6.31
2019-02-10T15:58:27.848Z,6.41
2019-02-10T16:00:57.491Z,6.55
2019-02-10T16:03:31.724Z,6.55
2019-02-10T16:06:02.673Z,6.59
2019-02-10T16:08:36.877Z,6.67
2019-02-10T16:11:08.971Z,6.50
2019-02-10T16:13:43.838Z,6.58
2019-02-10T16:16:16.971Z,6.49
2019-02-10T16:18:50.801Z,6.35
2019-02-10T16:21:24.717Z,6.48
2019-02-10T16:23:59.212Z,6.39
2019-02-10T16:26:29.845Z,6.25
2019-02-10T16:29:07.870Z,6.06
2019-02-10T16:31:38.444Z,6.10
2019-02-10T16:34:14.695Z,5.99
2019-02-10T16:36:45.971Z,5.89
2019-02-10T16:39:21.154Z,5.91
2019-02-10T16:41:55.923Z,5.85
2019-02-10T16:44:31.247Z,5.63
2019-02-10T16:47:02.864Z,5.62
2019-02-10T16:49:37.739Z,5.47
2019-02-10T16:52:10.640Z,5.47
2019-02-10T16:54:46.859Z,5.31
2019-02-10T16:57:17.425Z,5.21
2019-02-10T17:02:28.885Z,5.16
2019-02-10T17:05:06.449Z,5.12
2019-02-10T17:07:37.803Z,5.14
2019-02-10T17:10:17.149Z,5.11
2019-02-10T17:15:45.259Z,5.27
2019-02-10T17:18:19.247Z,5.31
2019-02-10T17:20:57.363Z,5.47
2019-02-10T17:23:28.749Z,5.59
2019-02-10T17:28:38.404Z,5.59
2019-02-10T17:31:14.432Z,5.34
2019-02-10T17:33:44.430Z,5.33
2019-02-10T17:36:19.856Z,5.31
2019-02-10T17:38:48.417Z,5.38
2019-02-10T17:43:59.860Z,5.12
2019-02-10T17:46:34.214Z,4.99
2019-02-10T17:49:14.356Z,4.95
2019-02-10T17:51:47.443Z,4.89
2019-02-10T17:54:21.905Z,4.88
2019-02-10T17:56:56.735Z,4.91
2019-02-10T17:59:25.002Z,4.83
2019-02-10T18:02:00.458Z,4.82
2019-02-10T18:04:37.387Z,5.06
2019-02-10T18:07:08.116Z,5.07
2019-02-10T18:09:37.922Z,5.10
2019-02-10T18:12:09.580Z,5.14
2019-02-10T18:14:55.719Z,5.08
2019-02-10T18:20:17.760Z,5.29
2019-02-10T18:25:29.062Z,5.63
2019-02-10T18:30:45.171Z,5.96
2019-02-10T18:36:13.167Z,6.75
2019-02-10T18:41:39.326Z,7.28
2019-02-10T18:50:01.464Z,7.49
2019-02-10T18:55:12.144Z,7.55
2019-02-10T19:00:26.326Z,7.69
2019-02-10T19:05:36.203Z,7.46
2019-02-10T19:08:16.307Z,7.29
2019-02-10T19:10:50.071Z,7.12
2019-02-10T19:16:25.327Z,6.72
2019-02-10T19:21:44.877Z,6.35
2019-02-10T19:32:42.320Z,6.04
2019-02-10T19:35:21.834Z,6.01
2019-02-10T19:37:53.921Z,5.99
2019-02-10T19:40:28.194Z,5.98
2019-02-10T19:43:01.618Z,6.02
2019-02-10T19:45:49.758Z,6.02
2019-02-10T19:48:32.610Z,6.02
2019-02-10T19:51:16.480Z,5.91
2019-02-10T19:53:56.572Z,5.83
2019-02-10T19:56:29.546Z,5.78
2019-02-10T19:59:01.251Z,5.78
2019-02-10T20:01:38.053Z,5.71
2019-02-10T20:04:10.336Z,5.68
2019-02-10T20:06:41.602Z,5.71
2019-02-10T20:09:24.645Z,5.70
2019-02-10T20:12:03.886Z,5.69
2019-02-10T20:14:30.501Z,5.75
2019-02-10T20:17:11.086Z,5.78
2019-02-10T20:19:48.425Z,5.82
2019-02-10T20:22:30.416Z,5.87
2019-02-10T20:25:09.290Z,5.77
2019-02-10T20:27:53.358Z,5.88
2019-02-10T20:30:26.267Z,5.83
2019-02-10T20:33:04.193Z,5.80
2019-02-10T20:35:43.082Z,5.80
2019-02-10T20:38:15.466Z,5.75
2019-02-10T20:40:53.802Z,5.79
2019-02-10T20:43:27.071Z,5.86
2019-02-10T20:46:14.827Z,5.81
2019-02-10T20:48:50.715Z,5.76
2019-02-10T20:51:24.245Z,5.79
2019-02-10T20:54:06.082Z,5.82
2019-02-10T20:56:42.129Z,5.79
2019-02-10T20:59:16.810Z,5.75
2019-02-10T21:02:04.908Z,5.70
2019-02-10T21:04:49.099Z,5.69
2019-02-10T21:07:20.580Z,5.68
2019-02-10T21:09:53.517Z,5.65
2019-02-10T21:12:41.680Z,5.71
2019-02-10T21:15:20.225Z,5.84
2019-02-10T21:17:53.743Z,5.78
2019-02-10T21:20:38.109Z,5.71
2019-02-10T21:23:12.352Z,5.71
2019-02-10T21:25:52.561Z,5.66
2019-02-10T21:28:19.155Z,5.69
2019-02-10T21:30:59.149Z,5.62
2019-02-10T21:33:46.411Z,5.65
2019-02-10T21:36:21.996Z,5.60
2019-02-10T21:39:09.840Z,5.58
2019-02-10T21:41:44.562Z,5.58
2019-02-10T21:44:22.651Z,5.60
2019-02-10T21:47:04.368Z,5.61
2019-02-10T21:49:35.915Z,5.63
2019-02-10T21:52:05.762Z,5.60
2019-02-10T21:54:39.382Z,5.58
2019-02-10T21:57:12.714Z,5.58
2019-02-10T21:59:43.577Z,5.50
2019-02-10T22:02:17.359Z,5.54
2019-02-10T22:04:46.399Z,5.54
2019-02-10T22:07:17.804Z,5.53
2019-02-10T22:09:47.409Z,5.48
2019-02-10T22:12:19.248Z,5.48
2019-02-10T22:14:49.705Z,5.50
2019-02-10T22:17:22.545Z,5.46
2019-02-10T22:19:53.771Z,5.57
2019-02-10T22:22:24.363Z,5.59
2019-02-10T22:24:57.141Z,5.59
2019-02-10T22:27:28.742Z,5.57
2019-02-10T22:29:58.528Z,5.62
2019-02-10T22:32:29.375Z,5.61
2019-02-10T22:35:00.755Z,5.54
2019-02-10T22:37:30.587Z,5.52
2019-02-10T22:40:02.304Z,5.60
2019-02-10T22:42:32.100Z,5.51
2019-02-10T22:45:03.995Z,5.51
2019-02-10T22:47:39.179Z,5.45
2019-02-10T22:50:18.821Z,5.48
2019-02-10T22:52:49.523Z,5.51
2019-02-10T22:55:22.209Z,5.57
2019-02-10T22:57:56.669Z,5.61
2019-02-10T23:00:53.432Z,5.59
2019-02-10T23:03:23.975Z,5.58
2019-02-10T23:05:58.349Z,5.66
2019-02-10T23:08:30.175Z,5.52
2019-02-10T23:11:03.020Z,5.49
2019-02-10T23:13:32.900Z,5.47
2019-02-10T23:16:05.051Z,5.47
2019-02-10T23:18:52.624Z,5.47
2019-02-10T23:21:25.331Z,5.46
2019-02-10T23:23:55.646Z,5.49
2019-02-10T23:26:31.822Z,5.43
2019-02-10T23:29:05.569Z,5.40
2019-02-10T23:31:40.075Z,5.32
2019-02-10T23:34:13.053Z,5.27
2019-02-10T23:36:45.304Z,5.23
2019-02-10T23:39:17.708Z,5.17
2019-02-10T23:41:49.361Z,5.10
2019-02-10T23:44:23.162Z,5.11
2019-02-10T23:47:02.221Z,5.08
2019-02-10T23:49:37.614Z,5.03
2019-02-10T23:52:08.923Z,5.06
2019-02-10T23:54:42.926Z,5.11
2019-02-10T23:57:13.675Z,5.06
2019-02-10T23:59:44.306Z,5.03
